PILOTS ONLINE: 401    ATC ONLINE: 61

KHYA - Barnstable Municipal Boardman Polando Field

Location

IATA HYA
City Hyannis
Country  United States
Latitude 41° 40' 9" N
Longitude 70° 16' 49" W
Elevation 54 ft
Type Medium Airport

Runways

06/24 5425 ft / 150 ft
15/33 5252 ft / 150 ft

Weather

METAR
2014/07/25 11:56
KHYA 251156Z 34010G15KT 10SM CLR 19/15 A2992 RMK AO2 SLP133 T01890150 10189 20178 51009
TAF
2014/07/25 12:27
TAF KHYA 251121Z 2512/2612 34007KT P6SM FEW250 
     FM251700 31007KT P6SM SKC 
     FM260600 25007KT P6SM FEW250

Outbound flights

Inbound flights